WetterOnline ( https://www.wetteronline.at )

Wetter aktuell Nesselwang

Aktuelles Wetter: Kempten (705m)

6-stündlich | Neueste Meldungen
Ortszeit Temperatur Wetter
Di, 17.09. 14:00 20.6° C wolkig
Di, 17.09. 8:00 11.4° C bewölkt
Di, 17.09. 2:00 14.6° C wolkig
Mo, 16.09. 20:00 19.6° C wolkig
Mo, 16.09. 14:00 23.9° C wolkig
Mo, 16.09. 8:00 13.5° C wolkenlos
Mo, 16.09. 2:00 14.4° C wolkenlos
So, 15.09. 20:00 18.4° C wolkenlos
Ortszeit Temperatur Wetter
Di, 17.09. 16:30 20.1° C wolkenlos
Di, 17.09. 16:20 20.1° C wolkenlos
Di, 17.09. 16:10 20.3° C fast wolkenlos
Di, 17.09. 16:00 20.7° C fast wolkenlos
Di, 17.09. 15:50 20.7° C fast wolkenlos
Di, 17.09. 15:40 20.0° C fast wolkenlos
Di, 17.09. 15:30 21.1° C leicht bewölkt
Di, 17.09. 15:00 21.1° C wolkig
Di, 17.09. 14:30 20.3° C wolkig
Di, 17.09. 14:00 20.6° C wolkig
Di, 17.09. 13:30 21.4° C wolkig
Ortszeit Relative Feuchte Sichtweite
Di, 17.09. 14:00 56% 29 km
Di, 17.09. 8:00 95% 10 km
Di, 17.09. 2:00 94% 14 km
Mo, 16.09. 20:00 75% 35 km
Mo, 16.09. 14:00 53% 50 km
Mo, 16.09. 8:00 88% 26 km
Mo, 16.09. 2:00 87% 35 km
So, 15.09. 20:00 78% 35 km
Ortszeit Relative Feuchte Sichtweite
Di, 17.09. 16:30 63% 22 km
Di, 17.09. 16:20 63% -
Di, 17.09. 16:10 64% -
Di, 17.09. 16:00 63% 5.0 km
Di, 17.09. 15:50 63% -
Di, 17.09. 15:40 63% -
Di, 17.09. 15:30 57% 30 km
Di, 17.09. 15:00 54% 26 km
Di, 17.09. 14:30 57% 26 km
Di, 17.09. 14:00 56% 29 km
Di, 17.09. 13:30 54% 19 km
Ortszeit Niederschlagsmenge Niederschlagsart
Di, 17.09. 14:00 0.0 l/m2 in 6 Std. -
Di, 17.09. 8:00 0.0 l/m2 in 12 Std. -
Di, 17.09. 2:00 0.0 l/m2 in 6 Std. -
Mo, 16.09. 20:00 0.0 l/m2 in 12 Std. -
Mo, 16.09. 14:00 0.0 l/m2 in 6 Std. -
Mo, 16.09. 8:00 0.0 l/m2 in 12 Std. -
Mo, 16.09. 2:00 0.0 l/m2 in 6 Std. -
So, 15.09. 20:00 0.0 l/m2 in 12 Std. -
Ortszeit Niederschlagsmenge Niederschlagsart
Di, 17.09. 16:30 0.0 l/m2 in 1 Std. -
Di, 17.09. 16:20 keine Meldung -
Di, 17.09. 16:10 keine Meldung -
Di, 17.09. 16:00 0.0 l/m2 in 1 Std. -
Di, 17.09. 15:50 keine Meldung -
Di, 17.09. 15:40 keine Meldung -
Di, 17.09. 15:30 0.0 l/m2 in 1 Std. -
Di, 17.09. 15:00 0.0 l/m2 in 1 Std. -
Di, 17.09. 14:30 0.0 l/m2 in 1 Std. -
Di, 17.09. 14:00 0.0 l/m2 in 1 Std. -
Di, 17.09. 13:30 0.0 l/m2 in 1 Std. -
Ortszeit Stärke Spitze Richtung
km/h Bft. km/h Grad Sektor
Di, 17.09. 14:00 13 3 28 310° NW
Di, 17.09. 8:00 2 1 7 100° O
Di, 17.09. 2:00 4 1 11 100° O
Mo, 16.09. 20:00 7 2 32 200° S
Mo, 16.09. 14:00 11 2 32 260° W
Mo, 16.09. 8:00 6 1 13 130° SO
Mo, 16.09. 2:00 6 1 17 110° O
So, 15.09. 20:00 4 1 22 200° S
Ortszeit Stärke Spitze Richtung
km/h Bft. km/h Grad Sektor
Di, 17.09. 16:30 9 2 22 320° NW
Di, 17.09. 16:20 9 2 - 320° NW
Di, 17.09. 16:10 11 2 - 320° NW
Di, 17.09. 16:00 7 2 29 310° NW
Di, 17.09. 15:50 7 2 - 310° NW
Di, 17.09. 15:40 13 3 - 320° NW
Di, 17.09. 15:30 11 2 29 310° NW
Di, 17.09. 15:00 11 2 25 320° NW
Di, 17.09. 14:30 13 3 24 310° NW
Di, 17.09. 14:00 13 3 28 310° NW
Di, 17.09. 13:30 9 2 28 320° NW
Ortszeit Untergrenze Bedeckung Gattung
total tief tief mittel hoch
Di, 17.09. 14:00 1170 m 7/8 7/8 - - -
Di, 17.09. 8:00 1140 m 7/8 7/8 - - -
Di, 17.09. 2:00 1800 m 8/8 2/8 - - -
Mo, 16.09. 20:00 5700 m 7/8 4/8 - - -
Mo, 16.09. 14:00 6300 m 8/8 2/8 - - -
Mo, 16.09. 8:00 - 0/8 0/8 - - -
Mo, 16.09. 2:00 - 0/8 0/8 - - -
So, 15.09. 20:00 - 0/8 0/8 - - -
Ortszeit Bedeckungsgrad in Achtel und Wolkenuntergrenze
Di, 17.09. 16:30 keine Wolken
Di, 17.09. 16:20 keine Wolken
Di, 17.09. 16:10 1(1410m)
Di, 17.09. 16:00 1(1410m)
Di, 17.09. 15:50 1(1410m)
Di, 17.09. 15:40 1(1230m)
Di, 17.09. 15:30 2(1200m)
Di, 17.09. 15:00 5(2400m)
Di, 17.09. 14:30 1(1230m) 6(2400m)
Di, 17.09. 14:00 7(1170m)
Di, 17.09. 13:30 5(1260m) 6(2700m)
Ortszeit Luftdruck NN (hPa) Tendenz (hPa in 3 Std.)
Di, 17.09. 14:00 1017 - 0,3
Di, 17.09. 8:00 1020 + 0,6
Di, 17.09. 2:00 1018 - 0,8
Mo, 16.09. 20:00 1017 - 0,2
Mo, 16.09. 14:00 1017 - 1,3
Mo, 16.09. 8:00 1021 - 0,8
Mo, 16.09. 2:00 1023 + 0,1
So, 15.09. 20:00 1021 - 0,6
Ortszeit Luftdruck NN (hPa) Tendenz (hPa in 3 Std.)
Di, 17.09. 16:30 1016 - 0,4
Di, 17.09. 16:20 1016 keine Meldung
Di, 17.09. 16:10 1016 keine Meldung
Di, 17.09. 16:00 1016 - 0,5
Di, 17.09. 15:50 1016 keine Meldung
Di, 17.09. 15:40 1016 keine Meldung
Di, 17.09. 15:30 1016 - 0,6
Di, 17.09. 15:00 1016 - 0,6
Di, 17.09. 14:30 1016 - 0,5
Di, 17.09. 14:00 1017 - 0,3
Di, 17.09. 13:30 1016 - 0,3
Ortszeit Schneehöhe (cm)
Di, 17.09. 14:00 -
Di, 17.09. 8:00 -
Di, 17.09. 2:00 -
Mo, 16.09. 20:00 -
Mo, 16.09. 14:00 -
Mo, 16.09. 8:00 -
Mo, 16.09. 2:00 -
So, 15.09. 20:00 -
Ortszeit Schneehöhe (cm)
Di, 17.09. 16:30 -
Di, 17.09. 16:20 -
Di, 17.09. 16:10 -
Di, 17.09. 16:00 -
Di, 17.09. 15:50 -
Di, 17.09. 15:40 -
Di, 17.09. 15:30 -
Di, 17.09. 15:00 -
Di, 17.09. 14:30 -
Di, 17.09. 14:00 -
Di, 17.09. 13:30 -
Link zu dieser Seite / Seite empfehlen

Das Wetter in ...